Time;durP1;ratioP1;P1;durP2;ratioP2;P2;SDS_P1;SDS_P2;PMS_P1;PMS_P2;Temp;Humidity;BMP_temperature;BMP_pressure;BME280_temperature;BME280_humidity;BME280_pressure;Samples;Min_cycle;Max_cycle;Signal;HPM_P1;HPM_P2
2022/11/16 00:00:47;;;;;;;7.00;4.28;;;;;;;6.18;100.00;91802.59;2131792;27;20022;-74
2022/11/16 00:01:49;;;;;;;5.53;4.35;;;;;;;6.20;100.00;91805.59;2131855;27;20087;-74
2022/11/16 00:02:53;;;;;;;6.55;4.28;;;;;;;6.19;100.00;91806.75;2131748;27;20418;-74
2022/11/16 00:03:57;;;;;;;4.38;3.78;;;;;;;6.34;100.00;91801.81;2131360;27;20457;-74
2022/11/16 00:04:58;;;;;;;3.63;3.28;;;;;;;6.33;100.00;91805.63;2131966;27;20041;-76
2022/11/16 00:06:03;;;;;;;5.60;3.80;;;;;;;6.26;100.00;91800.50;2131492;27;20022;-74
2022/11/16 00:07:05;;;;;;;6.18;3.55;;;;;;;6.22;100.00;91797.94;2131708;27;20033;-75
2022/11/16 00:08:05;;;;;;;6.43;3.97;;;;;;;6.20;100.00;91805.59;2122723;27;20023;-73
2022/11/16 00:09:22;;;;;;;4.32;3.80;;;;;;;6.22;100.00;91797.94;2123646;27;20018;-74
2022/11/16 00:10:23;;;;;;;7.95;3.60;;;;;;;6.21;100.00;91795.72;2132112;27;20372;-75
2022/11/16 00:11:23;;;;;;;6.55;3.92;;;;;;;6.28;100.00;91804.22;2114058;28;20059;-74
2022/11/16 00:12:24;;;;;;;4.68;3.55;;;;;;;6.27;100.00;91799.31;2105990;28;20031;-75
2022/11/16 00:13:25;;;;;;;6.18;3.75;;;;;;;6.28;100.00;91795.53;2122685;27;20034;-74
2022/11/16 00:14:29;;;;;;;6.20;3.88;;;;;;;6.24;100.00;91794.88;2129424;27;20023;-75
2022/11/16 00:15:30;;;;;;;4.47;3.78;;;;;;;6.28;100.00;91800.84;2123370;27;20042;-74
2022/11/16 00:16:32;;;;;;;4.05;3.47;;;;;;;6.30;100.00;91790.53;2113455;28;20070;-75
2022/11/16 00:17:33;;;;;;;4.18;3.38;;;;;;;6.34;100.00;91801.06;2114218;28;20031;-76
2022/11/16 00:18:34;;;;;;;4.15;3.33;;;;;;;6.44;100.00;91794.69;2114665;28;20028;-74
2022/11/16 00:19:35;;;;;;;5.18;3.63;;;;;;;6.40;100.00;91794.78;2115452;27;20039;-75
2022/11/16 00:20:37;;;;;;;3.92;3.28;;;;;;;6.37;100.00;91789.63;2123383;27;20037;-75
2022/11/16 00:21:38;;;;;;;7.85;3.92;;;;;;;6.31;100.00;91789.38;2123130;27;20476;-74
2022/11/16 00:22:39;;;;;;;5.38;3.30;;;;;;;6.31;100.00;91790.09;2123287;27;20134;-73
2022/11/16 00:23:40;;;;;;;5.57;3.80;;;;;;;6.35;100.00;91783.97;2123182;27;20024;-75
2022/11/16 00:24:41;;;;;;;6.28;3.83;;;;;;;6.31;100.00;91794.66;2122524;27;20035;-73
2022/11/16 00:25:43;;;;;;;7.30;3.55;;;;;;;6.31;100.00;91792.75;2123375;27;20365;-74
2022/11/16 00:26:44;;;;;;;7.25;3.67;;;;;;;6.33;100.00;91781.75;2122700;27;20034;-74
2022/11/16 00:27:45;;;;;;;9.93;4.00;;;;;;;6.38;100.00;91788.44;2123102;27;20034;-74
2022/11/16 00:28:47;;;;;;;7.90;3.97;;;;;;;6.35;100.00;91789.28;2123211;27;20430;-74
2022/11/16 00:29:48;;;;;;;6.40;3.47;;;;;;;6.38;100.00;91796.41;2123266;27;20106;-75
2022/11/16 00:30:57;;;;;;;4.63;3.53;;;;;;;6.36;100.00;91785.44;2115652;28;20034;-74
2022/11/16 00:31:58;;;;;;;4.45;4.00;;;;;;;6.34;100.00;91782.47;2114462;27;20087;-74
2022/11/16 00:33:00;;;;;;;4.85;3.65;;;;;;;6.30;100.00;91788.63;2115049;28;20111;-74
2022/11/16 00:34:02;;;;;;;4.80;3.50;;;;;;;6.31;100.00;91784.06;2114959;28;20066;-74
2022/11/16 00:35:03;;;;;;;5.43;3.55;;;;;;;6.28;100.00;91785.66;2114682;27;20032;-74
2022/11/16 00:36:07;;;;;;;7.03;3.45;;;;;;;6.25;100.00;91785.75;2122829;27;20027;-73
2022/11/16 00:37:07;;;;;;;4.22;3.83;;;;;;;6.26;100.00;91779.28;2122840;27;20015;-74
2022/11/16 00:38:08;;;;;;;4.57;3.30;;;;;;;6.24;100.00;91784.25;2123215;27;20020;-74
2022/11/16 00:39:11;;;;;;;3.83;3.53;;;;;;;6.27;100.00;91780.75;2122561;27;20116;-74
2022/11/16 00:40:12;;;;;;;3.35;3.03;;;;;;;6.27;100.00;91778.09;2122164;27;20361;-74
2022/11/16 00:41:13;;;;;;;4.50;3.75;;;;;;;6.26;100.00;91782.66;2114444;28;20031;-74
2022/11/16 00:42:14;;;;;;;5.78;3.10;;;;;;;6.35;100.00;91789.28;2114418;28;20106;-74
2022/11/16 00:43:15;;;;;;;4.43;3.28;;;;;;;6.31;100.00;91784.06;2114509;28;20047;-74
2022/11/16 00:44:17;;;;;;;3.88;3.10;;;;;;;6.30;100.00;91772.69;2114469;28;20114;-75
2022/11/16 00:45:18;;;;;;;4.38;2.88;;;;;;;6.30;100.00;91785.22;2114618;28;20027;-74
2022/11/16 00:46:19;;;;;;;3.65;3.35;;;;;;;6.30;100.00;91777.25;2121655;27;20512;-73
2022/11/16 00:47:21;;;;;;;3.28;2.78;;;;;;;6.29;100.00;91779.19;2123018;27;20031;-73
2022/11/16 00:48:22;;;;;;;6.35;3.20;;;;;;;6.26;100.00;91782.66;2123191;27;20774;-73
2022/11/16 00:49:23;;;;;;;3.92;3.20;;;;;;;6.29;100.00;91784.50;2122920;27;20046;-74
2022/11/16 00:50:24;;;;;;;4.70;3.53;;;;;;;6.27;100.00;91778.84;2122896;27;20027;-74
2022/11/16 00:51:25;;;;;;;3.13;2.72;;;;;;;6.31;100.00;91782.16;2122365;27;20490;-74
2022/11/16 00:52:26;;;;;;;5.53;3.10;;;;;;;6.29;100.00;91778.44;2122992;27;20023;-73
2022/11/16 00:53:27;;;;;;;4.25;3.72;;;;;;;6.29;100.00;91773.13;2123023;27;20108;-73
2022/11/16 00:54:28;;;;;;;5.80;2.97;;;;;;;6.27;100.00;91770.13;2122399;27;20058;-74
2022/11/16 00:55:29;;;;;;;6.03;3.08;;;;;;;6.42;100.00;91776.56;2122228;27;20447;-74
2022/11/16 00:56:30;;;;;;;3.55;2.85;;;;;;;6.38;100.00;91778.56;2120858;27;20432;-74
2022/11/16 00:57:30;;;;;;;4.18;3.17;;;;;;;6.36;100.00;91777.47;2122895;27;20031;-74
2022/11/16 00:58:31;;;;;;;3.53;2.88;;;;;;;6.34;100.00;91766.56;2122845;27;20046;-74
2022/11/16 00:59:32;;;;;;;3.78;3.15;;;;;;;6.33;100.00;91771.13;2122977;27;20061;-74
2022/11/16 01:00:33;;;;;;;5.50;3.50;;;;;;;6.31;100.00;91768.88;2122965;27;20023;-74
2022/11/16 01:01:34;;;;;;;4.68;2.88;;;;;;;6.31;100.00;91768.88;2113161;28;20277;-75
2022/11/16 01:02:35;;;;;;;3.80;2.60;;;;;;;6.31;100.00;91770.78;2113886;28;20059;-74
2022/11/16 01:03:37;;;;;;;3.42;3.03;;;;;;;6.34;100.00;91763.91;2122722;27;20023;-74
2022/11/16 01:04:38;;;;;;;5.93;3.22;;;;;;;6.33;100.00;91765.06;2123251;27;20354;-74
2022/11/16 01:05:39;;;;;;;4.07;2.67;;;;;;;6.34;100.00;91767.31;2123309;27;20105;-74
2022/11/16 01:06:40;;;;;;;4.63;2.97;;;;;;;6.37;100.00;91763.81;2121282;27;20034;-74
2022/11/16 01:07:41;;;;;;;3.90;2.25;;;;;;;6.37;100.00;91763.06;2114854;28;20026;-74
2022/11/16 01:08:43;;;;;;;2.67;2.47;;;;;;;6.41;100.00;91767.13;2114125;28;20070;-74
2022/11/16 01:09:44;;;;;;;3.67;2.58;;;;;;;6.50;100.00;91764.56;2122862;27;20038;-73
2022/11/16 01:10:45;;;;;;;4.95;2.00;;;;;;;6.55;100.00;91766.72;2123073;27;20046;-73
2022/11/16 01:13:06;;;;;;;2.53;1.83;;;;;;;6.55;100.00;91761.41;2122374;27;20047;-73
2022/11/16 01:14:08;;;;;;;1.55;1.20;;;;;;;6.67;100.00;91756.50;2122636;27;20031;-74
2022/11/16 01:15:09;;;;;;;2.28;1.23;;;;;;;6.70;100.00;91751.09;2122714;27;20035;-73
2022/11/16 01:16:18;;;;;;;1.05;0.98;;;;;;;6.91;100.00;91755.03;2122885;27;20069;-73
2022/11/16 01:17:19;;;;;;;2.78;0.75;;;;;;;6.95;100.00;91757.59;2121271;27;20015;-72
2022/11/16 01:18:20;;;;;;;0.70;0.70;;;;;;;7.00;100.00;91749.09;2121977;27;20031;-73
2022/11/16 01:19:21;;;;;;;1.08;0.80;;;;;;;6.97;100.00;91755.25;2122036;27;20031;-74
2022/11/16 01:20:26;;;;;;;1.00;0.77;;;;;;;7.04;100.00;91747.81;2122094;27;20742;-74
2022/11/16 01:21:27;;;;;;;1.77;0.80;;;;;;;7.11;100.00;91754.06;2122410;27;20033;-74
2022/11/16 01:22:28;;;;;;;1.25;0.77;;;;;;;7.14;100.00;91742.59;2131033;27;20022;-73
2022/11/16 01:23:29;;;;;;;3.10;0.80;;;;;;;7.11;100.00;91751.41;2131162;27;20473;-73
2022/11/16 01:24:30;;;;;;;2.05;0.85;;;;;;;7.12;100.00;91750.25;2131082;27;20027;-74
2022/11/16 01:25:31;;;;;;;0.75;0.70;;;;;;;7.13;100.00;91749.06;2131382;27;20125;-75
2022/11/16 01:26:32;;;;;;;2.28;0.70;;;;;;;7.16;100.00;91748.25;2131088;27;20026;-73
2022/11/16 01:27:33;;;;;;;1.17;0.95;;;;;;;7.20;100.00;91754.16;2130468;27;20463;-73
2022/11/16 01:28:34;;;;;;;1.08;0.60;;;;;;;7.16;100.00;91746.31;2131176;27;20023;-72
2022/11/16 01:29:35;;;;;;;0.65;0.65;;;;;;;7.20;100.00;91752.28;2131037;27;20405;-73
2022/11/16 01:30:36;;;;;;;2.08;0.90;;;;;;;7.19;100.00;91750.03;2131216;27;20019;-73
2022/11/16 01:31:37;;;;;;;0.80;0.60;;;;;;;7.19;100.00;91744.72;2130667;27;20360;-73
2022/11/16 01:32:38;;;;;;;0.95;0.90;;;;;;;7.21;100.00;91753.00;2130366;27;20449;-73
2022/11/16 01:33:40;;;;;;;0.80;0.60;;;;;;;7.24;100.00;91752.13;2131175;27;20053;-74
2022/11/16 01:34:40;;;;;;;0.63;0.63;;;;;;;7.30;100.00;91761.81;2131079;27;20364;-74
2022/11/16 01:35:42;;;;;;;0.60;0.50;;;;;;;7.28;100.00;91758.09;2131101;27;20105;-74
2022/11/16 01:36:43;;;;;;;1.55;0.70;;;;;;;7.46;100.00;91760.94;2130816;27;20030;-75
2022/11/16 01:37:44;;;;;;;0.77;0.70;;;;;;;7.43;100.00;91761.78;2127689;27;20087;-74
2022/11/16 01:38:46;;;;;;;1.13;1.02;;;;;;;7.37;100.00;91754.78;2122560;27;20167;-74
2022/11/16 01:39:48;;;;;;;4.00;0.90;;;;;;;7.46;100.00;91760.94;2122244;27;20058;-74
2022/11/16 01:40:49;;;;;;;1.42;0.80;;;;;;;7.36;100.00;91767.31;2123037;27;20042;-74
2022/11/16 01:41:50;;;;;;;1.75;0.70;;;;;;;7.37;100.00;91760.84;2123646;27;20034;-73
2022/11/16 01:42:51;;;;;;;1.85;0.60;;;;;;;7.35;100.00;91762.44;2125025;27;20373;-73
2022/11/16 01:44:04;;;;;;;1.42;0.70;;;;;;;7.30;100.00;91755.75;2131439;27;20460;-74
2022/11/16 01:45:19;;;;;;;3.10;0.77;;;;;;;7.33;100.00;91765.50;2121878;27;20416;-74
2022/11/16 01:46:21;;;;;;;0.85;0.60;;;;;;;7.30;100.00;91769.78;2123879;27;20034;-74
2022/11/16 01:47:22;;;;;;;2.10;0.82;;;;;;;7.27;100.00;91765.31;2131019;27;20041;-74
2022/11/16 01:48:26;;;;;;;1.30;0.50;;;;;;;7.25;100.00;91761.63;2130521;27;20439;-74
2022/11/16 01:49:32;;;;;;;0.80;0.60;;;;;;;7.27;100.00;91764.56;2130865;27;20607;-74
2022/11/16 01:50:34;;;;;;;0.70;0.60;;;;;;;7.32;100.00;91762.13;2130930;27;20076;-73
2022/11/16 01:51:36;;;;;;;2.17;0.60;;;;;;;7.33;100.00;91760.19;2131120;27;20038;-74
2022/11/16 01:52:44;;;;;;;1.20;0.70;;;;;;;7.31;100.00;91760.63;2131051;27;20018;-74
2022/11/16 01:53:45;;;;;;;1.10;0.80;;;;;;;7.34;100.00;91759.03;2124706;27;20031;-74
2022/11/16 01:54:50;;;;;;;1.10;0.90;;;;;;;7.25;100.00;91765.00;2122164;27;20054;-74
2022/11/16 01:55:51;;;;;;;2.83;0.60;;;;;;;7.32;100.00;91766.69;2113362;28;20110;-73
2022/11/16 01:56:55;;;;;;;0.73;0.65;;;;;;;7.27;100.00;91767.22;2112449;28;20043;-73
2022/11/16 01:57:56;;;;;;;5.00;0.60;;;;;;;7.27;100.00;91759.25;2122464;27;20075;-75
2022/11/16 01:58:57;;;;;;;0.65;0.60;;;;;;;7.25;100.00;91756.31;2128007;27;20349;-73
2022/11/16 01:59:59;;;;;;;1.88;0.55;;;;;;;7.23;100.00;91762.03;2130806;27;20509;-75
2022/11/16 02:01:00;;;;;;;1.45;0.70;;;;;;;7.22;100.00;91751.84;2131003;27;20030;-73
2022/11/16 02:02:02;;;;;;;1.70;0.50;;;;;;;7.24;100.00;91754.78;2131096;27;20027;-74
2022/11/16 02:03:03;;;;;;;3.97;0.60;;;;;;;7.26;100.00;91755.88;2113101;28;20045;-75
2022/11/16 02:04:04;;;;;;;1.95;0.50;;;;;;;7.36;100.00;91756.69;2112881;27;20032;-73
2022/11/16 02:05:06;;;;;;;0.88;0.70;;;;;;;7.34;100.00;91751.06;2130922;27;20033;-73
2022/11/16 02:06:25;;;;;;;0.98;0.70;;;;;;;7.46;100.00;91757.53;2130722;27;20023;-73
2022/11/16 02:10:04;;;;;;;0.63;0.50;;;;;;;7.45;100.00;91753.38;2130206;27;20050;-72
2022/11/16 02:11:23;;;;;;;0.38;0.38;;;;;;;7.38;100.00;91753.63;2130969;27;20369;-74
2022/11/16 02:13:13;;;;;;;0.50;0.50;;;;;;;7.30;100.00;91753.84;2130136;27;20480;-72
2022/11/16 02:14:16;;;;;;;0.30;0.30;;;;;;;7.37;100.00;91747.53;2090017;28;20052;-74
2022/11/16 02:15:40;;;;;;;0.32;0.32;;;;;;;7.41;100.00;91747.44;2087601;28;20041;-74
2022/11/16 02:17:06;;;;;;;0.52;0.50;;;;;;;7.46;100.00;91742.34;2095341;28;20588;-72
2022/11/16 02:18:23;;;;;;;0.60;0.40;;;;;;;7.35;100.00;91749.16;2095808;28;20043;-73
2022/11/16 02:19:45;;;;;;;2.80;0.47;;;;;;;7.33;100.00;91741.59;2100062;28;20029;-73
2022/11/16 02:21:02;;;;;;;0.50;0.40;;;;;;;7.40;100.00;91754.66;2122146;28;20374;-72
2022/11/16 02:22:21;;;;;;;1.40;0.50;;;;;;;7.35;100.00;91749.91;2122348;28;20059;-72
2022/11/16 02:23:59;;;;;;;0.93;0.40;;;;;;;7.37;100.00;91752.13;2122419;28;20453;-73
2022/11/16 02:25:06;;;;;;;0.50;0.50;;;;;;;7.34;100.00;91751.06;2128419;27;20043;-73
2022/11/16 02:26:13;;;;;;;0.60;0.50;;;;;;;7.32;100.00;91751.47;2130414;27;20037;-73
2022/11/16 02:27:41;;;;;;;0.50;0.50;;;;;;;7.28;100.00;91750.13;2131004;27;20027;-73
2022/11/16 02:28:44;;;;;;;0.90;0.90;;;;;;;7.32;100.00;91756.06;2130711;27;20085;-73
2022/11/16 02:29:56;;;;;;;2.78;0.90;;;;;;;7.28;100.00;91750.13;2130005;27;20031;-72
2022/11/16 02:31:00;;;;;;;1.50;1.00;;;;;;;7.28;100.00;91750.13;2130473;27;20027;-73
2022/11/16 02:32:08;;;;;;;2.72;1.20;;;;;;;7.23;100.00;91748.75;2126447;27;20023;-73
2022/11/16 02:33:15;;;;;;;1.17;1.08;;;;;;;7.23;100.00;91750.66;2122288;28;20027;-73
2022/11/16 02:34:18;;;;;;;2.17;1.35;;;;;;;7.16;100.00;91741.00;2122231;28;20062;-73
2022/11/16 02:35:35;;;;;;;1.80;1.50;;;;;;;7.15;100.00;91734.19;2118202;28;20419;-71
2022/11/16 02:36:41;;;;;;;2.45;1.55;;;;;;;7.15;100.00;91725.47;2123547;27;20369;-73
2022/11/16 02:37:47;;;;;;;1.85;1.45;;;;;;;7.13;100.00;91725.91;2130851;27;20468;-73
2022/11/16 02:39:06;;;;;;;1.75;1.65;;;;;;;7.17;100.00;91723.88;2130980;27;20019;-72
2022/11/16 02:40:10;;;;;;;4.43;1.70;;;;;;;7.13;100.00;91723.25;2120858;28;20118;-73
2022/11/16 02:41:17;;;;;;;1.75;1.65;;;;;;;7.09;100.00;91724.53;2122175;27;20102;-73
2022/11/16 02:42:26;;;;;;;2.35;2.00;;;;;;;7.15;100.00;91722.81;2121851;28;20076;-74
2022/11/16 02:43:34;;;;;;;2.60;1.88;;;;;;;7.10;100.00;91729.41;2123869;27;20392;-73
2022/11/16 02:44:42;;;;;;;2.78;1.77;;;;;;;7.11;100.00;91717.59;2130390;27;20421;-73
2022/11/16 02:45:49;;;;;;;2.42;1.90;;;;;;;7.16;100.00;91725.06;2125297;27;20076;-74
2022/11/16 02:46:55;;;;;;;5.95;2.05;;;;;;;7.14;100.00;91719.41;2122169;28;20441;-73
2022/11/16 02:48:02;;;;;;;2.67;2.00;;;;;;;7.07;100.00;91712.44;2122413;28;20141;-74
2022/11/16 02:49:10;;;;;;;3.47;2.03;;;;;;;7.06;100.00;91708.25;2122268;28;20445;-75
2022/11/16 02:50:16;;;;;;;2.25;2.08;;;;;;;7.07;100.00;91714.34;2122229;28;20019;-75
2022/11/16 02:51:20;;;;;;;2.95;2.10;;;;;;;7.03;100.00;91722.41;2122183;28;20031;-74
2022/11/16 02:52:22;;;;;;;1.75;1.65;;;;;;;7.02;100.00;91712.97;2122547;28;20045;-74
2022/11/16 02:53:24;;;;;;;3.88;2.28;;;;;;;7.02;100.00;91718.28;2122878;28;20114;-75
2022/11/16 02:54:25;;;;;;;4.75;2.13;;;;;;;7.01;100.00;91711.47;2123056;28;20106;-73
2022/11/16 02:55:27;;;;;;;2.45;2.25;;;;;;;6.99;100.00;91716.47;2122304;27;20023;-73
2022/11/16 02:56:29;;;;;;;5.05;2.40;;;;;;;6.93;100.00;91717.41;2130463;27;20041;-75
2022/11/16 02:57:45;;;;;;;3.13;2.50;;;;;;;6.87;100.00;91717.22;2130871;27;20065;-73
2022/11/16 02:58:46;;;;;;;2.38;2.17;;;;;;;6.89;100.00;91714.91;2130761;27;20409;-74
2022/11/16 02:59:52;;;;;;;3.28;2.33;;;;;;;6.88;100.00;91718.69;2130748;27;20015;-74
2022/11/16 03:00:56;;;;;;;3.10;2.45;;;;;;;6.87;100.00;91719.88;2128701;27;20031;-74
2022/11/16 03:02:21;;;;;;;2.60;2.40;;;;;;;6.86;100.00;91725.63;2122009;28;20031;-74
2022/11/16 03:03:31;;;;;;;3.35;2.60;;;;;;;6.83;100.00;91737.81;2122149;28;20459;-75
2022/11/16 03:04:43;;;;;;;2.75;2.33;;;;;;;6.81;100.00;91737.53;2122036;28;20114;-75
2022/11/16 03:05:52;;;;;;;2.60;2.40;;;;;;;6.75;100.00;91728.59;2122193;28;20039;-75
2022/11/16 03:06:56;;;;;;;2.67;2.47;;;;;;;6.75;100.00;91733.88;2112333;28;20082;-75
2022/11/16 03:08:11;;;;;;;3.72;2.42;;;;;;;6.78;100.00;91735.72;2113546;28;20591;-75
2022/11/16 03:09:27;;;;;;;7.25;2.80;;;;;;;6.74;100.00;91730.50;2126022;27;20025;-75
2022/11/16 03:11:59;;;;;;;4.45;2.70;;;;;;;6.76;100.00;91728.19;2123814;27;20019;-75
2022/11/16 03:13:02;;;;;;;3.53;2.67;;;;;;;6.80;100.00;91723.50;2122137;28;20038;-75
2022/11/16 03:14:10;;;;;;;3.15;2.85;;;;;;;6.84;100.00;91739.31;2122214;28;20033;-75
2022/11/16 03:15:12;;;;;;;3.13;2.58;;;;;;;6.82;100.00;91737.09;2122438;28;20035;-75
2022/11/16 03:16:20;;;;;;;2.95;2.25;;;;;;;6.79;100.00;91737.19;2121560;28;20114;-75
2022/11/16 03:17:27;;;;;;;2.65;2.13;;;;;;;6.78;100.00;91739.09;2121862;28;20729;-76
2022/11/16 03:18:28;;;;;;;2.75;2.33;;;;;;;6.87;100.00;91743.78;2122010;28;20031;-75
2022/11/16 03:19:52;;;;;;;4.05;2.53;;;;;;;6.85;100.00;91748.00;2122114;27;20027;-75
2022/11/16 03:21:13;;;;;;;2.90;2.30;;;;;;;6.81;100.00;91743.56;2123852;27;20406;-75
2022/11/16 03:22:21;;;;;;;3.03;2.28;;;;;;;6.87;100.00;91745.69;2129996;27;20037;-74
2022/11/16 03:23:22;;;;;;;2.65;2.05;;;;;;;6.91;100.00;91747.06;2132074;27;20027;-74
2022/11/16 03:24:23;;;;;;;2.35;2.15;;;;;;;6.88;100.00;91747.91;2132338;27;20026;-75
2022/11/16 03:25:30;;;;;;;2.33;2.13;;;;;;;6.89;100.00;91746.75;2132243;27;20471;-74
2022/11/16 03:26:44;;;;;;;2.40;2.20;;;;;;;7.07;100.00;91746.22;2122746;27;20031;-74
2022/11/16 03:28:28;;;;;;;4.40;2.10;;;;;;;6.97;100.00;91744.63;2124889;27;20043;-74
2022/11/16 03:29:32;;;;;;;1.90;0.88;;;;;;;7.07;100.00;91748.88;2097052;28;20056;-74
2022/11/16 03:30:40;;;;;;;1.92;1.17;;;;;;;7.04;100.00;91755.78;2097591;28;20032;-74
2022/11/16 03:31:47;;;;;;;1.00;0.90;;;;;;;7.04;100.00;91761.09;2101419;27;20045;-74
2022/11/16 03:32:56;;;;;;;1.15;1.08;;;;;;;7.09;100.00;91753.75;2115789;27;20019;-76
2022/11/16 03:34:02;;;;;;;1.65;0.90;;;;;;;7.01;100.00;91753.22;2124079;27;20049;-74
2022/11/16 03:35:13;;;;;;;0.82;0.70;;;;;;;7.07;100.00;91754.19;2123865;27;20062;-76
2022/11/16 03:36:31;;;;;;;0.68;0.68;;;;;;;7.04;100.00;91758.44;2116770;27;20028;-74
2022/11/16 03:37:33;;;;;;;1.73;0.60;;;;;;;7.04;100.00;91752.38;2122279;27;20026;-75
2022/11/16 03:38:38;;;;;;;1.92;0.50;;;;;;;7.15;100.00;91749.38;2123438;27;20023;-75
2022/11/16 03:39:40;;;;;;;0.68;0.52;;;;;;;7.16;100.00;91758.88;2123609;27;20019;-75
2022/11/16 03:40:44;;;;;;;2.22;0.68;;;;;;;7.17;100.00;91761.09;2123598;27;20030;-75
2022/11/16 03:41:47;;;;;;;0.50;0.50;;;;;;;7.16;100.00;91753.56;2128768;27;20098;-75
2022/11/16 03:42:49;;;;;;;0.68;0.68;;;;;;;7.11;100.00;91752.16;2127190;27;20019;-75
2022/11/16 03:43:51;;;;;;;0.43;0.43;;;;;;;7.33;100.00;91754.88;2113745;28;20150;-77
2022/11/16 03:44:53;;;;;;;0.73;0.35;;;;;;;7.30;100.00;91758.41;2114293;27;20042;-75
2022/11/16 03:45:56;;;;;;;0.65;0.50;;;;;;;7.40;100.00;91756.59;2123461;27;20035;-76
2022/11/16 03:46:57;;;;;;;0.30;0.30;;;;;;;7.43;100.00;91751.16;2123252;27;20111;-75
2022/11/16 03:47:59;;;;;;;0.47;0.20;;;;;;;7.45;100.00;91751.47;2127242;27;20030;-75
2022/11/16 03:49:00;;;;;;;1.00;0.35;;;;;;;7.54;100.00;91748.16;2131857;27;20029;-76
2022/11/16 03:50:03;;;;;;;0.47;0.47;;;;;;;7.46;100.00;91752.19;2132358;27;20491;-76
2022/11/16 03:51:06;;;;;;;0.30;0.20;;;;;;;7.40;100.00;91746.69;2132131;27;20041;-76
2022/11/16 03:52:07;;;;;;;1.15;0.30;;;;;;;7.33;100.00;91749.56;2132005;27;20027;-75
2022/11/16 03:53:08;;;;;;;0.45;0.22;;;;;;;7.54;100.00;91756.13;2127708;27;20031;-75
2022/11/16 03:54:09;;;;;;;1.05;0.40;;;;;;;7.69;100.00;91765.13;2123098;27;20027;-74
2022/11/16 03:55:11;;;;;;;0.32;0.32;;;;;;;7.64;100.00;91764.91;2123375;27;20038;-74
2022/11/16 03:56:13;;;;;;;0.47;0.30;;;;;;;7.47;100.00;91770.41;2123025;27;20023;-75
2022/11/16 03:57:17;;;;;;;0.30;0.30;;;;;;;7.35;100.00;91759.78;2123173;27;20046;-75
2022/11/16 03:58:18;;;;;;;0.50;0.30;;;;;;;7.25;100.00;91766.94;2126555;27;20164;-74
2022/11/16 03:59:19;;;;;;;2.03;0.30;;;;;;;7.35;100.00;91763.19;2131617;27;20019;-75
2022/11/16 04:00:20;;;;;;;0.30;0.30;;;;;;;7.42;100.00;91760.31;2131972;27;20075;-74
2022/11/16 04:01:20;;;;;;;0.30;0.30;;;;;;;7.38;100.00;91761.59;2122681;27;20023;-75
2022/11/16 04:02:22;;;;;;;1.10;0.40;;;;;;;7.34;100.00;91767.03;2114499;28;20016;-75
2022/11/16 04:03:23;;;;;;;0.30;0.30;;;;;;;7.36;100.00;91766.59;2120391;27;20031;-74
2022/11/16 04:24:58;;;;;;;0.30;0.30;;;;;;;7.36;100.00;91769.97;2096304;28;20047;-74
2022/11/16 04:25:59;;;;;;;1.65;0.20;;;;;;;7.40;100.00;91769.88;2088000;28;20114;-75
2022/11/16 04:28:28;;;;;;;0.20;0.20;;;;;;;7.26;100.00;91766.50;2096852;28;20045;-75
2022/11/16 04:29:30;;;;;;;0.20;0.20;;;;;;;7.22;100.00;91773.09;2093183;28;20029;-75
2022/11/16 04:38:35;;;;;;;0.30;0.30;;;;;;;7.23;100.00;91783.28;2120515;27;20042;-75
2022/11/16 04:39:36;;;;;;;0.20;0.20;;;;;;;7.16;100.00;91774.81;2123920;27;20076;-75
2022/11/16 04:40:37;;;;;;;0.95;0.30;;;;;;;7.09;100.00;91770.44;2131391;27;20436;-75
2022/11/16 04:42:59;;;;;;;0.30;0.30;;;;;;;6.94;100.00;91770.13;2131643;27;20018;-75
2022/11/16 04:44:02;;;;;;;0.25;0.25;;;;;;;6.92;100.00;91767.16;2131587;27;20035;-75
2022/11/16 04:47:57;;;;;;;0.30;0.30;;;;;;;6.90;100.00;91768.75;2122183;27;20040;-75
2022/11/16 04:49:02;;;;;;;;;;;;;;;6.97;100.00;91773.84;2126847;27;20461;-75
2022/11/16 04:50:09;;;;;;;1.85;0.40;;;;;;;6.97;100.00;91774.56;2130816;27;19903;-74
2022/11/16 04:51:10;;;;;;;0.30;0.30;;;;;;;6.98;100.00;91777.97;2131198;27;20026;-75
2022/11/16 04:52:15;;;;;;;1.65;0.40;;;;;;;6.88;100.00;91765.75;2131427;27;20449;-75
2022/11/16 04:53:25;;;;;;;2.00;0.30;;;;;;;6.88;100.00;91771.06;2131470;27;20062;-75
2022/11/16 04:54:34;;;;;;;;;;;;;;;7.18;100.00;91770.53;2131633;27;20033;-75
2022/11/16 04:55:35;;;;;;;1.23;0.30;;;;;;;7.19;100.00;91764.03;2121662;27;19911;-76
2022/11/16 04:56:36;;;;;;;0.20;0.20;;;;;;;7.06;100.00;91768.63;2121719;27;20027;-76
2022/11/16 04:57:38;;;;;;;0.20;0.20;;;;;;;6.96;100.00;91764.38;2131056;27;20409;-75
2022/11/16 04:58:39;;;;;;;0.25;0.25;;;;;;;6.96;100.00;91767.78;2131353;27;20082;-75
2022/11/16 04:59:45;;;;;;;0.32;0.20;;;;;;;7.05;100.00;91754.59;2131220;27;20026;-75
2022/11/16 05:00:51;;;;;;;0.60;0.25;;;;;;;6.94;100.00;91751.53;2130130;27;20368;-75
2022/11/16 05:02:09;;;;;;;0.88;0.30;;;;;;;6.90;100.00;91756.22;2121716;27;20034;-76
2022/11/16 05:03:15;;;;;;;0.90;0.30;;;;;;;6.79;100.00;91753.13;2125017;27;20043;-75
2022/11/16 05:04:17;;;;;;;0.90;0.30;;;;;;;6.74;100.00;91756.31;2131305;27;20467;-75
2022/11/16 05:05:19;;;;;;;1.13;0.25;;;;;;;7.02;100.00;91754.69;2130727;27;20105;-76
2022/11/16 05:06:39;;;;;;;0.40;0.30;;;;;;;6.89;100.00;91748.66;2130634;27;20185;-74
2022/11/16 05:07:40;;;;;;;0.40;0.40;;;;;;;6.83;100.00;91751.09;2131127;27;20579;-74
2022/11/16 05:08:41;;;;;;;0.35;0.35;;;;;;;6.69;100.00;91746.97;2131191;27;20033;-74
2022/11/16 05:09:50;;;;;;;0.30;0.30;;;;;;;6.67;100.00;91751.97;2129680;27;20497;-74
2022/11/16 05:10:56;;;;;;;0.77;0.77;;;;;;;6.62;100.00;91749.81;2123976;27;20039;-74
2022/11/16 05:12:03;;;;;;;1.70;1.40;;;;;;;6.71;100.00;91751.84;2122324;27;20027;-74
2022/11/16 05:13:04;;;;;;;0.80;0.80;;;;;;;6.65;100.00;91753.53;2117532;27;20394;-75
2022/11/16 05:14:05;;;;;;;1.23;1.15;;;;;;;6.63;100.00;91748.66;2118272;27;20027;-74
2022/11/16 05:15:07;;;;;;;4.50;1.92;;;;;;;6.68;100.00;91758.00;2119164;27;20029;-75
2022/11/16 05:16:12;;;;;;;3.67;3.33;;;;;;;6.62;100.00;91749.81;2118765;27;20058;-75
2022/11/16 05:17:20;;;;;;;2.47;1.60;;;;;;;6.55;100.00;91750.03;2120284;27;20126;-74
2022/11/16 05:18:25;;;;;;;4.55;3.10;;;;;;;6.52;100.00;91746.31;2109482;28;20026;-75
2022/11/16 05:21:01;;;;;;;5.72;4.60;;;;;;;6.55;100.00;91748.13;2114153;27;20042;-75
2022/11/16 05:22:03;;;;;;;5.68;4.97;;;;;;;6.49;100.00;91759.69;2119413;27;20063;-74
2022/11/16 05:23:04;;;;;;;8.32;5.60;;;;;;;6.43;100.00;91756.81;2124848;27;20026;-75
2022/11/16 05:25:26;;;;;;;1.70;1.60;;;;;;;6.45;100.00;91751.84;2128515;27;20050;-75
2022/11/16 05:26:27;;;;;;;2.35;2.15;;;;;;;6.42;100.00;91747.38;2124158;27;20019;-75
2022/11/16 05:27:28;;;;;;;6.60;4.80;;;;;;;6.38;100.00;91752.03;2119864;27;20027;-75
2022/11/16 05:28:29;;;;;;;5.35;4.93;;;;;;;6.42;100.00;91754.59;2119998;27;20410;-75
2022/11/16 05:29:31;;;;;;;2.83;2.63;;;;;;;6.38;100.00;91751.28;2119787;27;20042;-75
2022/11/16 05:30:31;;;;;;;6.07;3.67;;;;;;;6.30;100.00;91756.03;2119848;27;20045;-75
2022/11/16 05:31:32;;;;;;;8.15;7.28;;;;;;;6.31;100.00;91752.94;2119866;27;20717;-75
2022/11/16 05:32:35;;;;;;;3.63;2.97;;;;;;;6.30;100.00;91753.38;2127009;27;20081;-75
2022/11/16 05:33:36;;;;;;;2.67;2.47;;;;;;;6.46;100.00;91749.91;2128753;27;20022;-75
2022/11/16 05:34:38;;;;;;;2.85;2.17;;;;;;;6.46;100.00;91747.28;2128914;27;20114;-75
2022/11/16 05:35:39;;;;;;;3.47;2.33;;;;;;;6.57;100.00;91743.13;2119727;27;20422;-75
2022/11/16 05:36:41;;;;;;;1.45;1.30;;;;;;;6.59;100.00;91755.25;2118234;27;20464;-74
2022/11/16 05:37:42;;;;;;;1.20;0.88;;;;;;;6.61;100.00;91760.88;2128485;27;20027;-73
2022/11/16 05:38:43;;;;;;;1.40;1.20;;;;;;;6.57;100.00;91751.09;2128679;27;20402;-73
2022/11/16 05:39:44;;;;;;;0.80;0.80;;;;;;;6.58;100.00;91754.47;2128716;27;20079;-74
2022/11/16 05:40:45;;;;;;;0.93;0.52;;;;;;;6.45;100.00;91749.19;2128863;27;20027;-75
2022/11/16 05:41:46;;;;;;;4.32;0.88;;;;;;;6.43;100.00;91754.16;2127473;27;20030;-75
2022/11/16 05:42:47;;;;;;;0.50;0.43;;;;;;;6.39;100.00;91761.47;2128062;27;20544;-75
2022/11/16 05:43:48;;;;;;;1.23;0.50;;;;;;;6.42;100.00;91760.63;2129041;27;20019;-75
2022/11/16 05:44:49;;;;;;;0.60;0.60;;;;;;;6.46;100.00;91757.88;2128621;27;20104;-75
2022/11/16 05:45:50;;;;;;;1.20;0.50;;;;;;;6.44;100.00;91760.94;2119617;27;20183;-75
2022/11/16 05:46:52;;;;;;;1.33;0.82;;;;;;;6.44;100.00;91768.16;2119126;27;20528;-74